Time;durP1;ratioP1;P1;durP2;ratioP2;P2;SDS_P1;SDS_P2;PMS_P1;PMS_P2;Temp;Humidity;BMP_temperature;BMP_pressure;BME280_temperature;BME280_humidity;BME280_pressure;Samples;Min_cycle;Max_cycle;Signal;HPM_P1;HPM_P2
2021/12/06 00:02:07;;;;;;;14.90;9.07;;;;;;;0.84;100.00;98068.97;5023982;28;20040;-72
2021/12/06 00:04:36;;;;;;;15.13;7.97;;;;;;;0.82;100.00;98054.13;5030762;28;20033;-72
2021/12/06 00:07:06;;;;;;;15.48;8.65;;;;;;;0.77;100.00;98051.13;5030555;28;20033;-72
2021/12/06 00:09:35;;;;;;;15.95;8.77;;;;;;;0.87;100.00;98067.81;5027234;28;20048;-72
2021/12/06 00:12:02;;;;;;;18.48;9.75;;;;;;;0.80;100.00;98064.94;5046049;28;20025;-72
2021/12/06 00:14:30;;;;;;;8.77;5.32;;;;;;;0.74;100.00;98062.09;5028134;28;20049;-72
2021/12/06 00:17:01;;;;;;;8.95;4.82;;;;;;;0.71;100.00;98065.06;5030273;28;20031;-72
2021/12/06 00:19:28;;;;;;;7.47;4.00;;;;;;;0.77;100.00;98073.25;5027818;28;20025;-72
2021/12/06 00:21:54;;;;;;;11.52;4.60;;;;;;;0.76;100.00;98078.72;5030254;28;20030;-72
2021/12/06 00:24:20;;;;;;;10.27;5.70;;;;;;;0.43;100.00;98034.16;5034707;28;20103;-72
2021/12/06 00:26:45;;;;;;;34.38;13.90;;;;;;;0.53;100.00;98049.19;5036683;28;20025;-72
2021/12/06 00:29:11;;;;;;;25.58;10.88;;;;;;;0.40;100.00;98044.28;5038359;28;20033;-72
2021/12/06 00:31:38;;;;;;;48.20;18.30;;;;;;;0.58;100.00;98060.19;5051306;28;20021;-72
2021/12/06 00:34:08;;;;;;;36.25;14.68;;;;;;;0.59;100.00;98072.50;5046954;28;20538;-72
2021/12/06 00:36:37;;;;;;;18.45;8.45;;;;;;;0.62;100.00;98091.63;5041289;28;20112;-72
2021/12/06 00:39:05;;;;;;;12.02;5.28;;;;;;;0.60;100.00;98090.13;5041364;28;20056;-72
2021/12/06 00:41:30;;;;;;;9.35;4.43;;;;;;;0.43;100.00;98066.06;5040998;28;20040;-72
2021/12/06 00:43:56;;;;;;;5.82;3.78;;;;;;;0.57;100.00;98091.25;5041210;28;20037;-72
2021/12/06 00:46:21;;;;;;;6.70;3.35;;;;;;;0.48;100.00;98073.59;5044050;28;20030;-72
2021/12/06 00:48:47;;;;;;;6.15;3.38;;;;;;;0.59;100.00;98093.78;5022260;28;20053;-72
2021/12/06 00:51:15;;;;;;;8.32;3.40;;;;;;;0.51;100.00;98083.09;5040004;28;20021;-73
2021/12/06 00:53:40;;;;;;;6.25;3.47;;;;;;;0.42;100.00;98066.25;5054326;28;20056;-72
2021/12/06 00:56:06;;;;;;;5.65;3.30;;;;;;;0.51;100.00;98080.44;5038583;28;20215;-72
2021/12/06 00:58:31;;;;;;;5.80;3.70;;;;;;;0.67;100.00;98101.81;5033914;28;20036;-72
2021/12/06 01:00:57;;;;;;;8.32;4.05;;;;;;;0.60;100.00;98098.09;5032939;28;20036;-72
2021/12/06 01:03:34;;;;;;;9.13;4.60;;;;;;;0.88;100.00;98117.41;5033611;28;20483;-72
2021/12/06 01:06:00;;;;;;;8.43;5.47;;;;;;;0.86;100.00;98106.94;5024525;28;20033;-72
2021/12/06 01:08:26;;;;;;;8.02;5.43;;;;;;;0.81;100.00;98116.34;5031114;28;20025;-71
2021/12/06 01:10:51;;;;;;;10.27;5.95;;;;;;;0.73;100.00;98089.69;5028281;28;20036;-71
2021/12/06 01:13:18;;;;;;;11.98;6.50;;;;;;;0.68;100.00;98089.34;5015706;28;20032;-71
2021/12/06 01:15:44;;;;;;;12.05;6.82;;;;;;;0.79;100.00;98134.34;5025736;28;20033;-71
2021/12/06 01:18:19;;;;;;;11.73;6.38;;;;;;;0.62;100.00;98110.25;5012407;28;20029;-71
2021/12/06 01:23:54;;;;;;;10.30;6.60;;;;;;;0.55;100.00;98121.69;4989163;28;20067;-71
2021/12/06 01:29:37;;;;;;;11.02;6.38;;;;;;;0.63;100.00;98149.22;5029584;28;20099;-71
2021/12/06 01:32:24;;;;;;;9.18;5.40;;;;;;;0.66;100.00;98166.72;5052256;28;20521;-72
2021/12/06 01:40:12;;;;;;;10.00;5.85;;;;;;;0.67;100.00;98148.91;5032893;28;20099;-72
2021/12/06 01:42:38;;;;;;;12.75;5.80;;;;;;;0.68;100.00;98163.88;5032441;28;20029;-72
2021/12/06 01:45:06;;;;;;;9.95;6.15;;;;;;;0.72;100.00;98176.72;5032723;28;20048;-72
2021/12/06 01:47:34;;;;;;;10.07;6.35;;;;;;;0.75;100.00;98178.22;5032785;28;20463;-72
2021/12/06 01:50:01;;;;;;;8.37;5.93;;;;;;;0.73;100.00;98182.88;5036990;28;20029;-72
2021/12/06 01:52:32;;;;;;;9.52;6.07;;;;;;;0.62;100.00;98166.16;5032840;28;20033;-72
2021/12/06 01:54:59;;;;;;;9.38;6.05;;;;;;;0.81;100.00;98189.09;5032782;28;20025;-72
2021/12/06 01:57:28;;;;;;;11.65;6.35;;;;;;;0.72;100.00;98173.22;5027753;28;20079;-73
2021/12/06 01:59:54;;;;;;;16.90;7.97;;;;;;;0.84;100.00;98190.63;5029812;28;20473;-73
2021/12/06 02:02:25;;;;;;;16.67;7.82;;;;;;;0.76;100.00;98174.56;5030631;28;20025;-72
2021/12/06 02:04:51;;;;;;;15.55;8.93;;;;;;;0.81;100.00;98182.91;5020597;28;20040;-72
2021/12/06 02:07:22;;;;;;;14.68;9.18;;;;;;;0.69;100.00;98170.88;5030080;28;20025;-72
2021/12/06 02:09:48;;;;;;;21.77;10.55;;;;;;;0.75;100.00;98191.53;5029230;28;20025;-72
2021/12/06 02:12:17;;;;;;;16.55;9.30;;;;;;;0.77;100.00;98198.38;5025264;28;20402;-72
2021/12/06 02:17:21;;;;;;;16.90;9.40;;;;;;;0.39;100.00;98139.25;5030073;28;20090;-72
2021/12/06 02:19:50;;;;;;;15.88;9.95;;;;;;;0.56;100.00;98172.13;5029809;28;20021;-72
2021/12/06 02:22:25;;;;;;;19.67;9.93;;;;;;;0.72;100.00;98200.69;5030365;28;20399;-72
2021/12/06 02:24:52;;;;;;;12.48;8.60;;;;;;;0.71;100.00;98196.34;5026753;28;20072;-72
2021/12/06 02:27:20;;;;;;;15.30;8.85;;;;;;;0.61;100.00;98185.81;5022599;28;20056;-72
2021/12/06 02:29:48;;;;;;;15.68;8.57;;;;;;;0.61;100.00;98176.97;5029991;28;20029;-72
2021/12/06 02:32:15;;;;;;;12.27;7.28;;;;;;;0.68;100.00;98195.81;5029809;28;20549;-72
2021/12/06 02:34:43;;;;;;;12.45;7.60;;;;;;;0.64;100.00;98201.44;5012729;28;20086;-72
2021/12/06 02:37:10;;;;;;;16.13;8.35;;;;;;;0.70;100.00;98215.97;5028252;28;20032;-72
2021/12/06 02:39:37;;;;;;;16.05;8.85;;;;;;;0.77;100.00;98214.38;5019049;28;20037;-72
2021/12/06 02:42:05;;;;;;;12.98;7.60;;;;;;;0.76;100.00;98219.84;5029104;28;20033;-72
2021/12/06 02:44:31;;;;;;;15.10;7.95;;;;;;;0.69;100.00;98218.81;5030058;28;20029;-72
2021/12/06 02:46:56;;;;;;;11.98;7.35;;;;;;;0.67;100.00;98223.44;5022601;28;20028;-71
2021/12/06 02:49:22;;;;;;;13.02;7.50;;;;;;;0.53;100.00;98201.72;5028134;28;20049;-71
2021/12/06 02:51:49;;;;;;;12.27;7.00;;;;;;;0.58;100.00;98210.06;5030205;28;20059;-71
2021/12/06 02:54:15;;;;;;;12.88;7.85;;;;;;;0.62;100.00;98211.41;5011848;28;20405;-72
2021/12/06 02:56:53;;;;;;;12.63;7.28;;;;;;;0.55;100.00;98202.41;5012193;28;20026;-71
2021/12/06 02:59:22;;;;;;;11.82;6.75;;;;;;;0.57;100.00;98200.41;5029800;28;20734;-71
2021/12/06 03:01:53;;;;;;;11.90;7.90;;;;;;;0.64;100.00;98212.09;5026396;28;20063;-72
2021/12/06 03:04:19;;;;;;;12.63;7.43;;;;;;;0.68;100.00;98225.09;5009916;28;20029;-72
2021/12/06 03:06:47;;;;;;;15.65;8.98;;;;;;;0.67;100.00;98226.94;5010927;28;20022;-72
2021/12/06 03:09:16;;;;;;;15.95;9.43;;;;;;;0.64;100.00;98216.59;5018098;28;20029;-72
2021/12/06 03:11:41;;;;;;;;;;;;;;;0.67;100.00;98234.09;5012430;28;20033;-72
2021/12/06 03:14:10;;;;;;;15.27;9.25;;;;;;;0.62;100.00;98218.56;5022183;28;20462;-72
2021/12/06 03:16:35;;;;;;;15.23;9.40;;;;;;;0.58;100.00;98218.06;5008403;28;20538;-71
2021/12/06 03:19:01;;;;;;;20.13;10.55;;;;;;;0.68;100.00;98231.25;5016718;28;20037;-71
2021/12/06 03:21:27;;;;;;;16.45;9.10;;;;;;;0.67;100.00;98224.28;5028839;28;20025;-71
2021/12/06 03:23:56;;;;;;;13.70;8.68;;;;;;;0.78;100.00;98239.97;5030202;28;20036;-71
2021/12/06 03:26:22;;;;;;;19.17;9.75;;;;;;;0.80;100.00;98242.50;5029614;28;20028;-71
2021/12/06 03:28:48;;;;;;;16.30;8.73;;;;;;;0.68;100.00;98217.13;5030806;28;20482;-71
2021/12/06 03:31:15;;;;;;;17.00;9.07;;;;;;;0.78;100.00;98247.16;5038365;28;20030;-71
2021/12/06 03:33:43;;;;;;;17.80;9.25;;;;;;;0.73;100.00;98252.09;5028895;28;20022;-71
2021/12/06 03:36:09;;;;;;;15.90;9.63;;;;;;;0.63;100.00;98234.41;5029329;28;20110;-71
2021/12/06 03:38:36;;;;;;;14.43;8.82;;;;;;;0.74;100.00;98264.44;5026463;28;20033;-72
2021/12/06 03:41:03;;;;;;;14.73;9.15;;;;;;;0.75;100.00;98252.78;5029214;28;20033;-71
2021/12/06 03:43:29;;;;;;;16.42;8.63;;;;;;;0.70;100.00;98255.06;5025559;28;20676;-72
2021/12/06 03:45:54;;;;;;;15.13;8.80;;;;;;;0.71;100.00;98259.41;5011416;28;20037;-71
2021/12/06 03:48:19;;;;;;;14.90;9.18;;;;;;;0.61;100.00;98273.63;5022230;28;20025;-72
2021/12/06 03:50:45;;;;;;;16.38;10.00;;;;;;;0.50;100.00;98257.06;5009579;28;20026;-72
2021/12/06 03:53:10;;;;;;;16.38;9.32;;;;;;;0.52;100.00;98255.09;5032020;28;20376;-72
2021/12/06 03:55:35;;;;;;;16.92;10.10;;;;;;;0.54;100.00;98264.59;5028947;28;20040;-71
2021/12/06 03:58:02;;;;;;;19.55;11.50;;;;;;;0.61;100.00;98270.16;5028769;28;20495;-71
2021/12/06 04:00:27;;;;;;;19.25;10.70;;;;;;;0.36;100.00;98235.31;5022639;28;20636;-71
2021/12/06 04:02:54;;;;;;;16.70;9.60;;;;;;;0.60;100.00;98285.28;5028588;28;20035;-72
2021/12/06 04:05:19;;;;;;;18.55;10.82;;;;;;;0.63;100.00;98284.97;5026650;28;20986;-72
2021/12/06 04:07:46;;;;;;;17.10;10.43;;;;;;;0.54;100.00;98269.91;5028294;28;20022;-71
2021/12/06 04:10:12;;;;;;;13.75;9.02;;;;;;;0.64;100.00;98268.00;5028504;28;20040;-71
2021/12/06 04:12:38;;;;;;;11.70;8.10;;;;;;;0.77;100.00;98286.25;5010798;28;20025;-72
2021/12/06 04:15:10;;;;;;;15.50;9.10;;;;;;;0.69;100.00;98288.84;5020731;28;20522;-71
2021/12/06 04:17:38;;;;;;;15.27;9.07;;;;;;;0.64;100.00;98291.97;5030576;28;20685;-71
2021/12/06 04:20:10;;;;;;;17.40;9.35;;;;;;;0.49;100.00;98266.03;5028192;28;20048;-71
2021/12/06 04:22:35;;;;;;;17.38;9.98;;;;;;;0.58;100.00;98281.09;5027212;28;20044;-71
2021/12/06 04:25:02;;;;;;;15.95;9.32;;;;;;;0.66;100.00;98297.16;5028781;28;20025;-71
2021/12/06 04:27:29;;;;;;;16.17;10.07;;;;;;;0.69;100.00;98296.00;5021988;28;20030;-73
2021/12/06 04:29:55;;;;;;;17.88;11.05;;;;;;;0.66;100.00;98294.50;5010049;28;20124;-71
2021/12/06 04:32:21;;;;;;;15.93;9.18;;;;;;;0.73;100.00;98297.34;5041659;28;20100;-71
2021/12/06 04:34:47;;;;;;;15.77;10.00;;;;;;;0.75;100.00;98303.38;5028242;28;20108;-71
2021/12/06 04:37:13;;;;;;;14.25;9.30;;;;;;;0.65;100.00;98298.97;5032603;28;20146;-71
2021/12/06 04:39:39;;;;;;;16.52;8.85;;;;;;;0.58;100.00;98292.59;5025028;28;20503;-71
2021/12/06 04:42:05;;;;;;;14.88;9.45;;;;;;;0.50;100.00;98279.22;5010534;28;20120;-71
2021/12/06 04:44:31;;;;;;;15.95;9.38;;;;;;;0.42;100.00;98268.50;5026951;28;20087;-71
2021/12/06 04:46:57;;;;;;;14.10;9.05;;;;;;;0.68;100.00;98323.59;5029349;28;20441;-72
2021/12/06 04:49:25;;;;;;;15.95;9.10;;;;;;;0.55;100.00;98314.19;5027616;28;20575;-72
2021/12/06 04:51:52;;;;;;;13.15;9.73;;;;;;;0.65;100.00;98336.25;5029208;28;20026;-72
2021/12/06 04:54:21;;;;;;;14.50;8.95;;;;;;;0.63;100.00;98340.88;5012847;28;20043;-72
2021/12/06 04:56:56;;;;;;;17.25;9.05;;;;;;;0.61;100.00;98334.88;5037174;28;20029;-72
2021/12/06 04:59:33;;;;;;;14.18;9.77;;;;;;;0.61;100.00;98331.38;5024554;28;20112;-72
2021/12/06 05:02:01;;;;;;;15.40;9.40;;;;;;;0.54;100.00;98323.16;5025796;28;20034;-72
2021/12/06 05:04:30;;;;;;;14.40;9.13;;;;;;;0.83;100.00;98351.38;5010814;28;20040;-72
2021/12/06 05:07:04;;;;;;;16.27;8.38;;;;;;;0.93;100.00;98359.28;5028173;28;20017;-72
2021/12/06 05:09:33;;;;;;;17.08;8.90;;;;;;;1.07;100.00;98364.91;5023438;28;20061;-71
2021/12/06 05:11:59;;;;;;;12.05;8.00;;;;;;;1.15;100.00;98373.94;5014631;28;20032;-72
2021/12/06 05:14:25;;;;;;;14.68;9.07;;;;;;;1.12;100.00;98368.94;5028288;28;20045;-72
2021/12/06 05:16:52;;;;;;;14.90;8.13;;;;;;;1.07;100.00;98380.03;5038923;28;20041;-72
2021/12/06 05:19:18;;;;;;;15.20;9.05;;;;;;;1.05;100.00;98377.53;5021985;28;20037;-72
2021/12/06 05:21:44;;;;;;;16.23;9.65;;;;;;;1.05;100.00;98390.88;5025779;28;20037;-72
2021/12/06 05:24:10;;;;;;;14.80;9.02;;;;;;;0.93;100.00;98365.44;5010154;28;20041;-72
2021/12/06 05:26:36;;;;;;;14.52;9.57;;;;;;;1.05;100.00;98395.38;5013317;28;20114;-72
2021/12/06 05:29:06;;;;;;;12.63;8.23;;;;;;;0.94;100.00;98388.41;5013152;28;20165;-72
2021/12/06 05:31:33;;;;;;;15.07;8.77;;;;;;;0.99;100.00;98414.59;5010894;28;20033;-72
2021/12/06 05:34:03;;;;;;;16.10;9.30;;;;;;;0.98;100.00;98415.59;5013927;28;20087;-72
2021/12/06 05:36:28;;;;;;;;;;;;;;;0.93;100.00;98423.19;5032340;28;20025;-72
2021/12/06 05:38:55;;;;;;;12.65;7.88;;;;;;;0.92;100.00;98417.03;5029716;28;19913;-72
2021/12/06 05:41:21;;;;;;;12.60;8.23;;;;;;;0.95;100.00;98427.41;5031129;28;20083;-72
2021/12/06 05:43:46;;;;;;;16.85;8.70;;;;;;;0.92;100.00;98425.03;5012919;28;20029;-72
2021/12/06 05:46:12;;;;;;;15.95;9.23;;;;;;;0.92;100.00;98433.03;5029542;28;20150;-72
2021/12/06 05:48:38;;;;;;;16.80;9.27;;;;;;;0.86;100.00;98437.13;5022400;28;20033;-71
2021/12/06 05:51:03;;;;;;;15.70;9.25;;;;;;;0.90;100.00;98435.00;5027434;28;20045;-72
2021/12/06 05:53:29;;;;;;;18.95;9.80;;;;;;;0.82;100.00;98422.44;5030333;28;20495;-76
2021/12/06 05:55:54;;;;;;;14.30;8.75;;;;;;;0.79;100.00;98420.09;5030228;28;20052;-74
2021/12/06 05:58:23;;;;;;;14.05;8.38;;;;;;;0.81;100.00;98430.56;5028238;28;20049;-75
2021/12/06 06:00:49;;;;;;;12.95;8.27;;;;;;;0.89;100.00;98433.31;4997927;28;20152;-74
2021/12/06 06:03:16;;;;;;;13.55;8.23;;;;;;;0.99;100.00;98454.56;5021489;28;20061;-72
2021/12/06 06:05:41;;;;;;;13.88;8.57;;;;;;;0.90;100.00;98444.81;5030732;28;20778;-73
2021/12/06 06:08:07;;;;;;;13.98;8.35;;;;;;;1.05;100.00;98468.13;5033402;28;20021;-72
2021/12/06 06:10:33;;;;;;;15.18;9.30;;;;;;;0.99;100.00;98444.72;5028361;28;20033;-73
2021/12/06 06:12:59;;;;;;;14.73;9.20;;;;;;;1.05;100.00;98462.78;5024677;28;20572;-73
2021/12/06 06:15:26;;;;;;;18.30;10.15;;;;;;;0.98;100.00;98455.56;5013094;28;20029;-74
2021/12/06 06:17:52;;;;;;;16.00;9.45;;;;;;;1.03;100.00;98456.78;5006731;28;20112;-77
2021/12/06 06:20:22;;;;;;;17.15;9.82;;;;;;;0.98;100.00;98468.88;5027316;28;20128;-75
2021/12/06 06:22:47;;;;;;;20.15;11.68;;;;;;;0.90;100.00;98466.13;5010113;28;20503;-76
2021/12/06 06:25:14;;;;;;;16.63;10.43;;;;;;;0.98;100.00;98475.03;5008406;28;20104;-71
2021/12/06 06:27:39;;;;;;;18.05;9.85;;;;;;;0.82;100.00;98457.06;5012984;28;20110;-72
2021/12/06 06:30:06;;;;;;;16.00;9.73;;;;;;;0.99;100.00;98481.19;5029643;28;20075;-73
2021/12/06 06:32:31;;;;;;;19.77;10.55;;;;;;;1.04;100.00;98484.25;5028746;28;20032;-75
2021/12/06 06:34:57;;;;;;;20.27;10.30;;;;;;;0.63;100.00;98428.72;5033763;28;20028;-74
2021/12/06 06:37:22;;;;;;;18.08;10.20;;;;;;;1.04;100.00;98501.06;5012203;28;20025;-74
2021/12/06 06:39:48;;;;;;;18.05;9.95;;;;;;;0.98;100.00;98482.19;5018949;28;20021;-74
2021/12/06 06:42:14;;;;;;;17.55;10.23;;;;;;;0.99;100.00;98486.50;5021834;28;20025;-75
2021/12/06 06:44:40;;;;;;;20.02;10.23;;;;;;;0.99;100.00;98492.69;5030298;28;20037;-74
2021/12/06 06:47:05;;;;;;;23.05;9.73;;;;;;;0.95;100.00;98496.66;5011239;28;20036;-75
2021/12/06 06:49:31;;;;;;;17.83;10.65;;;;;;;0.92;100.00;98483.63;5009326;28;20047;-72
2021/12/06 06:52:00;;;;;;;17.42;10.60;;;;;;;1.02;100.00;98497.72;5030440;28;20491;-72
2021/12/06 06:54:26;;;;;;;;;;;;;;;1.12;100.00;98523.44;5024964;28;20068;-71
2021/12/06 06:56:51;;;;;;;20.15;9.45;;;;;;;0.81;100.00;98478.50;5029021;28;20375;-75
2021/12/06 06:59:17;;;;;;;19.95;9.80;;;;;;;1.03;100.00;98523.38;5033054;28;20391;-75
2021/12/06 07:01:44;;;;;;;18.90;10.43;;;;;;;1.06;100.00;98531.06;5007057;28;20500;-74
2021/12/06 07:04:09;;;;;;;17.05;10.07;;;;;;;1.10;100.00;98536.91;5007976;28;20036;-72
2021/12/06 07:06:35;;;;;;;18.17;9.93;;;;;;;1.09;100.00;98546.72;5027803;28;20021;-74
2021/12/06 07:09:00;;;;;;;18.38;10.50;;;;;;;1.03;100.00;98535.84;5024376;28;20052;-74
2021/12/06 07:11:27;;;;;;;16.83;10.15;;;;;;;1.06;100.00;98546.22;5026455;28;20439;-75
2021/12/06 07:13:53;;;;;;;18.02;9.75;;;;;;;1.02;100.00;98534.16;5027358;28;20037;-74
2021/12/06 07:16:19;;;;;;;19.92;10.13;;;;;;;0.95;100.00;98533.09;5024272;28;20025;-74
2021/12/06 07:18:44;;;;;;;19.52;10.35;;;;;;;0.94;100.00;98529.56;5024730;28;20029;-75
2021/12/06 07:21:12;;;;;;;20.50;11.25;;;;;;;1.09;100.00;98536.06;5024623;28;20029;-74
2021/12/06 07:23:38;;;;;;;21.13;10.18;;;;;;;1.23;100.00;98564.06;5023821;28;20033;-73
2021/12/06 07:26:13;;;;;;;17.35;9.93;;;;;;;1.24;100.00;98557.72;5010548;28;20032;-73
2021/12/06 07:28:39;;;;;;;19.63;10.82;;;;;;;1.06;100.00;98536.38;5026113;28;20645;-74
2021/12/06 07:31:06;;;;;;;19.52;10.10;;;;;;;1.24;100.00;98563.06;5023998;28;20100;-74
2021/12/06 07:33:35;;;;;;;21.08;11.60;;;;;;;1.17;100.00;98542.50;5010008;28;20437;-74
2021/12/06 07:36:02;;;;;;;19.42;10.50;;;;;;;1.37;100.00;98565.38;5025220;28;20033;-74
2021/12/06 07:38:28;;;;;;;17.98;10.88;;;;;;;1.24;100.00;98544.41;5021829;28;20025;-73
2021/12/06 07:40:54;;;;;;;18.05;10.60;;;;;;;1.35;100.00;98556.69;5023994;28;20088;-73
2021/12/06 07:43:20;;;;;;;17.35;10.15;;;;;;;1.45;100.00;98576.09;5028859;28;20025;-76
2021/12/06 07:45:46;;;;;;;18.25;10.27;;;;;;;1.17;100.00;98526.50;5027722;28;20480;-73
2021/12/06 07:48:12;;;;;;;16.92;9.90;;;;;;;1.42;100.00;98547.09;5023786;28;20041;-74
2021/12/06 07:50:38;;;;;;;16.52;10.27;;;;;;;1.50;100.00;98560.50;5027107;28;20068;-72
2021/12/06 07:53:03;;;;;;;17.42;10.43;;;;;;;1.58;100.00;98580.25;5027688;28;20485;-72
2021/12/06 07:55:31;;;;;;;18.27;9.98;;;;;;;1.59;100.00;98573.91;5029073;28;20040;-73
2021/12/06 07:57:58;;;;;;;17.92;9.48;;;;;;;1.60;100.00;98570.25;5011593;28;20483;-74
2021/12/06 08:00:26;;;;;;;17.38;10.18;;;;;;;1.59;100.00;98563.25;5029995;28;20029;-72
2021/12/06 08:02:52;;;;;;;19.35;10.98;;;;;;;1.59;100.00;98571.25;5027779;28;20025;-72
2021/12/06 08:05:30;;;;;;;19.30;9.88;;;;;;;1.77;100.00;98588.06;5033658;28;20124;-72
2021/12/06 08:08:11;;;;;;;19.42;10.85;;;;;;;1.80;100.00;98594.94;5034689;28;20013;-72
2021/12/06 08:10:40;;;;;;;15.75;10.23;;;;;;;1.86;100.00;98592.50;5023874;28;20108;-71
2021/12/06 08:13:06;;;;;;;21.42;11.68;;;;;;;1.92;100.00;98601.72;5016806;28;20025;-71
2021/12/06 08:15:33;;;;;;;26.00;13.88;;;;;;;1.96;100.00;98603.94;5023531;28;20450;-70
2021/12/06 08:17:58;;;;;;;31.95;18.17;;;;;;;1.87;100.00;98588.84;5027219;28;20032;-70
2021/12/06 08:20:24;;;;;;;31.05;16.23;;;;;;;1.80;100.00;98582.44;5011113;28;20025;-70
2021/12/06 08:22:49;;;;;;;21.33;11.80;;;;;;;1.95;100.00;98602.25;5011389;28;20056;-70
2021/12/06 08:25:16;;;;;;;17.67;10.20;;;;;;;2.09;100.00;98610.69;5029033;28;20025;-69
2021/12/06 08:27:42;;;;;;;19.10;10.57;;;;;;;2.14;100.00;98617.25;5029258;28;20113;-69
2021/12/06 08:30:11;;;;;;;19.10;10.50;;;;;;;2.09;100.00;98603.53;5037843;28;20086;-73
2021/12/06 08:32:36;;;;;;;15.50;7.87;;;;;;;2.12;100.00;98592.56;5026328;28;20429;-73
2021/12/06 08:35:04;;;;;;;17.75;10.35;;;;;;;2.38;100.00;98613.09;5027941;28;20276;-73
2021/12/06 08:37:30;;;;;;;19.90;10.20;;;;;;;2.57;100.00;98614.75;5028985;28;20095;-73
2021/12/06 08:39:56;;;;;;;17.38;10.45;;;;;;;2.59;100.00;98620.75;5011533;28;20021;-72
2021/12/06 08:42:21;;;;;;;15.63;9.70;;;;;;;2.58;100.00;98624.41;5028732;28;20036;-72
2021/12/06 08:44:48;;;;;;;18.38;10.38;;;;;;;2.65;100.00;98625.47;5028496;28;20151;-73
2021/12/06 08:47:15;;;;;;;15.07;8.88;;;;;;;2.55;100.00;98606.03;5028017;28;20017;-72
2021/12/06 08:49:41;;;;;;;16.92;9.50;;;;;;;2.47;99.90;98596.13;5028301;28;20036;-72
2021/12/06 08:52:07;;;;;;;16.13;9.55;;;;;;;2.81;98.25;98625.56;5032564;28;20037;-73
2021/12/06 08:54:32;;;;;;;17.05;9.70;;;;;;;2.84;96.59;98621.75;5025969;28;21824;-74
2021/12/06 08:57:01;;;;;;;14.48;9.15;;;;;;;2.85;97.39;98636.75;5031556;28;20029;-76
2021/12/06 08:59:27;;;;;;;14.90;9.35;;;;;;;2.79;98.00;98640.91;5027433;28;20018;-73
2021/12/06 09:01:54;;;;;;;16.42;9.93;;;;;;;2.55;98.58;98604.19;5025497;28;20087;-74
2021/12/06 09:04:21;;;;;;;15.43;9.48;;;;;;;2.70;97.69;98604.47;5023637;28;20075;-73
2021/12/06 09:06:50;;;;;;;16.55;8.75;;;;;;;2.96;96.73;98641.00;5031504;28;20013;-74
2021/12/06 09:09:16;;;;;;;15.07;8.95;;;;;;;2.72;95.41;98625.66;5032116;28;20034;-74
2021/12/06 09:11:44;;;;;;;14.10;9.48;;;;;;;2.67;96.35;98644.00;5033697;28;20037;-72
2021/12/06 09:14:11;;;;;;;15.32;9.25;;;;;;;2.91;98.04;98644.16;5029861;28;20056;-73
2021/12/06 09:16:38;;;;;;;15.30;9.00;;;;;;;3.20;96.78;98646.47;5025969;28;20652;-73
2021/12/06 09:19:05;;;;;;;13.85;9.32;;;;;;;3.47;95.14;98647.25;5031377;28;20033;-73
2021/12/06 09:21:32;;;;;;;14.38;8.63;;;;;;;3.56;95.58;98648.09;5028063;28;20029;-73
2021/12/06 09:24:00;;;;;;;13.77;8.88;;;;;;;3.07;93.69;98614.84;5031893;28;20021;-73
2021/12/06 09:26:28;;;;;;;16.73;9.68;;;;;;;3.40;95.01;98641.69;5030994;28;20029;-69
2021/12/06 09:28:53;;;;;;;18.77;9.27;;;;;;;3.52;94.24;98650.28;5037874;28;20437;-69
2021/12/06 09:31:19;;;;;;;14.57;9.43;;;;;;;3.42;92.42;98650.41;5041688;28;20041;-70
2021/12/06 09:33:45;;;;;;;15.73;9.48;;;;;;;3.55;93.42;98649.94;5033092;28;20024;-69
2021/12/06 09:36:12;;;;;;;14.73;9.52;;;;;;;3.60;92.89;98647.63;5032847;28;20025;-70
2021/12/06 09:38:38;;;;;;;16.60;9.77;;;;;;;3.37;92.25;98649.22;5033169;28;20029;-69
2021/12/06 09:41:23;;;;;;;16.38;9.65;;;;;;;3.46;92.83;98650.94;5032614;28;20128;-69
2021/12/06 09:43:52;;;;;;;15.60;9.10;;;;;;;3.43;91.00;98635.19;5040588;28;20029;-73
2021/12/06 09:46:18;;;;;;;15.63;9.63;;;;;;;3.51;90.71;98657.47;5014801;28;20502;-69
2021/12/06 09:48:45;;;;;;;16.13;9.90;;;;;;;3.54;90.69;98658.97;5031178;28;20029;-75
2021/12/06 09:51:18;;;;;;;18.38;10.02;;;;;;;3.33;92.42;98635.34;5030257;28;20022;-73
2021/12/06 09:53:46;;;;;;;20.70;10.98;;;;;;;3.43;92.11;98646.75;5010580;28;20030;-75
2021/12/06 09:56:16;;;;;;;16.10;10.02;;;;;;;3.09;93.49;98617.34;5007769;28;20057;-74
2021/12/06 09:58:43;;;;;;;17.88;10.50;;;;;;;3.22;93.48;98641.81;5012145;28;20017;-75
2021/12/06 10:01:24;;;;;;;17.63;9.93;;;;;;;3.70;91.51;98656.34;5013332;28;20072;-71
2021/12/06 10:03:53;;;;;;;17.48;9.98;;;;;;;3.98;90.40;98657.91;5013402;28;20026;-71
2021/12/06 10:06:21;;;;;;;16.98;9.98;;;;;;;3.89;90.07;98654.38;5026912;28;20061;-73
2021/12/06 10:08:49;;;;;;;19.83;10.63;;;;;;;3.91;90.06;98655.06;5027935;28;20501;-73
2021/12/06 10:11:16;;;;;;;18.92;10.50;;;;;;;3.72;90.90;98646.31;5011570;28;20021;-73
2021/12/06 10:13:43;;;;;;;19.60;10.15;;;;;;;3.94;89.65;98627.97;5029459;28;20029;-71
2021/12/06 10:16:10;;;;;;;18.15;10.40;;;;;;;3.93;88.57;98623.63;5008525;28;20029;-73
2021/12/06 10:18:36;;;;;;;20.70;11.35;;;;;;;3.65;89.20;98650.66;5032164;28;20540;-73
2021/12/06 10:21:02;;;;;;;17.48;11.15;;;;;;;3.65;90.23;98607.84;5012583;28;20083;-73
2021/12/06 10:23:28;;;;;;;17.15;10.82;;;;;;;3.91;90.41;98641.69;4997899;28;20408;-73
2021/12/06 10:25:55;;;;;;;19.23;11.50;;;;;;;3.89;90.60;98638.31;5023559;28;20029;-73
2021/12/06 10:28:24;;;;;;;17.92;10.48;;;;;;;3.66;90.53;98614.84;5014635;28;20072;-73
2021/12/06 10:30:52;;;;;;;;;;;;;;;3.81;90.67;98635.63;5028464;28;20021;-73
2021/12/06 10:33:21;;;;;;;19.90;11.10;;;;;;;3.68;91.68;98631.59;5031031;28;19968;-75
2021/12/06 10:35:50;;;;;;;23.67;11.55;;;;;;;3.29;93.61;98597.38;5027658;28;20040;-72
2021/12/06 10:38:20;;;;;;;23.58;11.82;;;;;;;3.37;92.09;98614.44;5020127;28;20064;-73
2021/12/06 10:40:45;;;;;;;19.88;11.88;;;;;;;3.11;92.69;98590.47;5009936;28;20391;-75
2021/12/06 10:43:12;;;;;;;20.13;10.93;;;;;;;3.32;92.29;98625.63;5030801;28;20029;-74
2021/12/06 10:45:48;;;;;;;27.27;12.07;;;;;;;3.11;93.66;98618.00;5028479;28;20041;-70
2021/12/06 10:48:21;;;;;;;20.23;11.52;;;;;;;3.25;92.56;98633.47;5025487;28;20092;-70
2021/12/06 10:50:47;;;;;;;25.00;11.30;;;;;;;3.16;93.45;98629.06;5019653;28;20037;-71
2021/12/06 10:53:17;;;;;;;22.35;10.95;;;;;;;3.15;94.12;98621.22;5021873;28;20037;-70
2021/12/06 10:55:43;;;;;;;22.55;10.93;;;;;;;3.21;94.26;98628.59;5029588;28;20403;-70
2021/12/06 10:58:15;;;;;;;27.88;12.57;;;;;;;3.21;93.42;98615.22;5032309;28;20501;-71
2021/12/06 11:01:04;;;;;;;23.83;11.93;;;;;;;3.37;93.60;98630.50;5030452;28;20040;-70
2021/12/06 11:03:32;;;;;;;21.80;12.18;;;;;;;3.36;93.09;98628.81;5024167;28;20034;-71
2021/12/06 11:06:09;;;;;;;23.13;11.27;;;;;;;3.57;92.26;98618.53;5035176;28;20083;-70
2021/12/06 11:08:36;;;;;;;23.77;12.15;;;;;;;3.48;94.08;98627.50;5037806;28;20284;-70
2021/12/06 11:11:09;;;;;;;22.17;11.75;;;;;;;3.49;94.88;98608.63;5021697;28;20089;-70
2021/12/06 11:13:41;;;;;;;23.45;10.27;;;;;;;3.63;94.22;98630.41;5029150;28;20033;-70
2021/12/06 11:16:14;;;;;;;27.17;11.55;;;;;;;3.58;93.43;98627.38;5016877;28;20029;-70
2021/12/06 11:18:39;;;;;;;22.30;11.32;;;;;;;3.55;92.66;98628.53;5029266;28;20029;-70
2021/12/06 11:21:16;;;;;;;22.90;11.32;;;;;;;3.58;91.85;98622.88;5016727;28;20117;-70
2021/12/06 11:24:00;;;;;;;20.65;11.30;;;;;;;3.37;93.68;98617.13;5016943;28;20065;-70
2021/12/06 11:26:26;;;;;;;23.67;12.05;;;;;;;3.43;94.40;98608.44;5034608;28;20112;-70
2021/12/06 11:28:51;;;;;;;26.45;11.85;;;;;;;3.33;94.21;98591.69;5036912;28;20025;-70
2021/12/06 11:31:17;;;;;;;25.42;12.25;;;;;;;3.38;94.79;98597.38;5010414;28;20419;-70
2021/12/06 11:33:43;;;;;;;24.67;12.63;;;;;;;3.38;94.01;98586.69;5028018;28;20133;-70
2021/12/06 11:36:25;;;;;;;20.52;10.88;;;;;;;3.53;94.14;98592.25;5011109;28;20033;-70
2021/12/06 11:39:02;;;;;;;25.38;11.20;;;;;;;3.67;93.80;98602.34;4999106;28;20065;-70
2021/12/06 11:41:29;;;;;;;22.27;11.57;;;;;;;3.47;92.95;98588.41;5026322;28;20029;-70
2021/12/06 11:43:55;;;;;;;22.00;10.65;;;;;;;3.62;92.93;98586.78;5028080;28;20485;-70